createdAt,value
2018-07-03T07:36:29.116Z,24.53
2018-07-03T07:38:37.147Z,24.78
2018-07-03T07:40:43.083Z,24.69
2018-07-03T07:42:50.393Z,24.87
2018-07-03T07:47:06.541Z,24.70
2018-07-03T07:49:15.458Z,24.83
2018-07-03T07:51:23.776Z,24.86
2018-07-03T07:53:29.462Z,25.03
2018-07-03T07:55:35.473Z,25.11
2018-07-03T07:57:41.737Z,24.94
2018-07-03T07:59:48.006Z,25.04
2018-07-03T08:01:54.316Z,24.90
2018-07-03T08:04:00.245Z,25.12
2018-07-03T08:06:06.239Z,25.12
2018-07-03T08:08:15.076Z,25.16
2018-07-03T08:10:25.804Z,25.20
2018-07-03T08:12:31.782Z,25.44
2018-07-03T08:15:41.165Z,25.37
2018-07-03T08:17:46.673Z,25.46
2018-07-03T08:19:52.934Z,25.64
2018-07-03T08:21:59.096Z,25.70
2018-07-03T08:26:27.438Z,25.65
2018-07-03T08:28:32.983Z,25.71
2018-07-03T08:30:38.506Z,25.56
2018-07-03T08:32:44.505Z,25.50
2018-07-03T08:34:50.014Z,25.57
2018-07-03T08:36:56.027Z,25.74
2018-07-03T08:39:01.949Z,25.86
2018-07-03T08:41:10.895Z,25.91
2018-07-03T08:43:18.315Z,25.86
2018-07-03T08:45:25.325Z,25.86
2018-07-03T08:47:31.472Z,25.96
2018-07-03T08:49:37.053Z,25.99
2018-07-03T08:51:42.923Z,25.96
2018-07-03T08:53:49.371Z,26.05
2018-07-03T08:55:54.910Z,25.97
2018-07-03T08:58:01.523Z,25.84
2018-07-03T09:00:10.316Z,25.85
2018-07-03T09:02:18.079Z,26.03
2018-07-03T09:04:26.596Z,26.10
2018-07-03T09:06:33.933Z,26.14
2018-07-03T09:08:39.601Z,26.15
2018-07-03T09:10:45.542Z,26.18
2018-07-03T09:12:51.407Z,26.16
2018-07-03T09:14:57.428Z,26.21
2018-07-03T09:17:38.065Z,26.24
2018-07-03T09:19:44.150Z,26.22
2018-07-03T09:21:49.689Z,26.20
2018-07-03T09:23:55.544Z,26.17
2018-07-03T09:26:01.149Z,26.09
2018-07-03T09:28:08.018Z,26.15
2018-07-03T09:30:16.916Z,26.15
2018-07-03T09:32:25.297Z,26.20
2018-07-03T09:34:30.925Z,26.21
2018-07-03T09:36:36.931Z,26.21
2018-07-03T09:38:42.581Z,26.10
2018-07-03T09:40:48.260Z,26.25
2018-07-03T09:42:54.190Z,26.24
2018-07-03T09:44:59.844Z,26.29
2018-07-03T09:47:07.546Z,26.35
2018-07-03T09:49:19.777Z,26.29
2018-07-03T09:51:25.529Z,26.34
2018-07-03T09:53:31.680Z,26.39
2018-07-03T09:55:37.533Z,26.38
2018-07-03T09:57:43.122Z,26.45
2018-07-03T09:59:48.631Z,26.48
2018-07-03T10:01:54.495Z,26.46
2018-07-03T10:04:00.050Z,26.46
2018-07-03T10:06:06.478Z,26.49
2018-07-03T10:08:18.045Z,26.53
2018-07-03T10:10:28.314Z,26.51
2018-07-03T10:12:34.756Z,26.44
2018-07-03T10:14:40.554Z,26.30
2018-07-03T10:16:46.153Z,26.44
2018-07-03T10:18:51.728Z,26.49
2018-07-03T10:20:57.589Z,26.55
2018-07-03T10:23:03.198Z,26.61
2018-07-03T10:25:09.641Z,26.63
2018-07-03T10:27:18.087Z,26.67
2018-07-03T10:29:24.825Z,26.67
2018-07-03T10:31:30.630Z,26.71
2018-07-03T10:33:37.378Z,26.71
2018-07-03T10:35:43.045Z,26.72
2018-07-03T10:37:48.933Z,26.69
2018-07-03T10:39:54.724Z,26.70
2018-07-03T10:42:00.341Z,26.68
2018-07-03T10:44:06.796Z,26.62
2018-07-03T10:46:15.337Z,26.53
2018-07-03T10:48:22.874Z,26.53
2018-07-03T10:50:28.977Z,26.64
2018-07-03T10:52:34.807Z,26.71
2018-07-03T10:54:40.397Z,26.73
2018-07-03T10:56:46.101Z,26.53
2018-07-03T10:58:52.168Z,26.71
2018-07-03T11:00:57.714Z,26.74
2018-07-03T11:03:04.029Z,26.78
2018-07-03T11:05:11.054Z,26.75
2018-07-03T11:07:19.492Z,26.76
2018-07-03T11:09:25.789Z,26.76
2018-07-03T11:11:31.632Z,26.80
2018-07-03T11:13:37.109Z,26.76
2018-07-03T11:15:42.633Z,26.79
2018-07-03T11:17:48.715Z,26.84
2018-07-03T11:19:54.465Z,26.86
2018-07-03T11:22:00.014Z,26.78
2018-07-03T11:24:09.630Z,26.82
2018-07-03T11:26:20.279Z,26.70
2018-07-03T11:28:32.883Z,26.86
2018-07-03T11:30:38.718Z,26.90
2018-07-03T11:32:44.310Z,26.95
2018-07-03T11:34:50.149Z,26.97
2018-07-03T11:36:56.072Z,27.01
2018-07-03T11:39:01.765Z,27.01
2018-07-03T11:41:09.631Z,27.04
2018-07-03T11:43:18.351Z,27.05
2018-07-03T11:45:25.653Z,27.08
2018-07-03T11:47:31.204Z,27.11
2018-07-03T11:49:37.228Z,27.14
2018-07-03T11:51:43.354Z,27.18
2018-07-03T11:53:49.269Z,27.23
2018-07-03T11:55:55.128Z,27.28
2018-07-03T11:58:00.778Z,27.31
2018-07-03T12:00:07.092Z,27.36
2018-07-03T12:02:15.743Z,27.37
2018-07-03T12:04:26.094Z,27.46
2018-07-03T12:06:31.609Z,27.59
2018-07-03T12:08:37.669Z,27.77
2018-07-03T12:10:43.700Z,28.02
2018-07-03T12:12:49.268Z,28.42
2018-07-03T12:14:56.070Z,29.31
2018-07-03T12:17:02.272Z,30.62
2018-07-03T12:19:09.982Z,31.34
2018-07-03T12:21:18.994Z,31.81
2018-07-03T12:23:26.629Z,32.62
2018-07-03T12:25:32.214Z,33.14
2018-07-03T12:27:38.430Z,33.61
2018-07-03T12:29:44.101Z,33.86
2018-07-03T12:31:49.719Z,34.20
2018-07-03T12:33:55.707Z,34.29
2018-07-03T12:36:01.880Z,34.77
2018-07-03T12:38:18.330Z,34.70
2018-07-03T12:43:29.759Z,35.41
2018-07-03T12:45:41.399Z,35.53
2018-07-03T12:47:48.712Z,35.24
2018-07-03T12:49:57.059Z,34.99
2018-07-03T12:52:02.783Z,35.56
2018-07-03T12:54:15.172Z,35.89
2018-07-03T12:56:34.001Z,35.80
2018-07-03T12:58:46.015Z,35.93
2018-07-03T13:00:53.553Z,35.41
2018-07-03T13:03:03.376Z,34.59
2018-07-03T13:05:15.036Z,34.64
2018-07-03T13:07:24.546Z,36.06
2018-07-03T13:09:30.565Z,36.91
2018-07-03T13:11:36.739Z,37.22
2018-07-03T13:13:43.054Z,37.47
2018-07-03T13:15:48.937Z,37.60
2018-07-03T13:17:54.962Z,37.75
2018-07-03T13:20:01.516Z,37.92
2018-07-03T13:22:09.424Z,37.90
2018-07-03T13:24:20.945Z,37.51
2018-07-03T13:26:26.851Z,36.88
2018-07-03T13:28:32.477Z,36.89
2018-07-03T13:30:38.116Z,37.18
2018-07-03T13:32:44.020Z,37.54
2018-07-03T13:34:49.824Z,37.61
2018-07-03T13:36:55.745Z,38.02
2018-07-03T13:39:01.773Z,38.00
2018-07-03T13:41:08.779Z,37.95
2018-07-03T13:43:16.564Z,37.90
2018-07-03T13:45:24.224Z,37.72
2018-07-03T13:47:30.046Z,37.84
2018-07-03T13:49:36.881Z,37.84
2018-07-03T13:51:43.263Z,37.77
2018-07-03T13:53:48.896Z,37.64
2018-07-03T13:55:54.686Z,37.34
2018-07-03T13:58:03.255Z,37.38
2018-07-03T14:00:09.981Z,37.21
2018-07-03T14:02:18.281Z,36.95
2018-07-03T14:04:24.706Z,36.66
2018-07-03T14:06:30.428Z,36.44
2018-07-03T14:08:36.086Z,36.11
2018-07-03T14:10:41.905Z,36.03
2018-07-03T14:12:47.721Z,35.50
2018-07-03T14:14:53.269Z,35.12
2018-07-03T14:16:59.332Z,34.72
2018-07-03T14:19:05.601Z,34.37
2018-07-03T14:21:14.483Z,34.16
2018-07-03T14:23:22.107Z,33.72
2018-07-03T14:25:27.722Z,33.74
2018-07-03T14:27:33.329Z,33.49
2018-07-03T14:29:39.232Z,33.33
2018-07-03T14:31:44.725Z,33.25
2018-07-03T14:33:50.376Z,33.25
2018-07-03T14:35:56.262Z,33.03
2018-07-03T14:38:01.916Z,32.92
2018-07-03T14:40:09.772Z,32.89
2018-07-03T14:42:17.335Z,32.93
2018-07-03T14:44:24.493Z,32.82
2018-07-03T14:46:30.207Z,32.84
2018-07-03T14:48:36.132Z,32.76
2018-07-03T14:50:41.726Z,32.69
2018-07-03T14:52:47.420Z,32.73
2018-07-03T14:54:53.346Z,32.71
2018-07-03T14:56:58.909Z,32.71
2018-07-03T14:59:04.934Z,32.66
2018-07-03T15:01:13.561Z,32.64
2018-07-03T15:03:20.312Z,32.56
2018-07-03T15:05:26.516Z,32.64
2018-07-03T15:07:32.544Z,32.61
2018-07-03T15:09:38.721Z,32.47
2018-07-03T15:11:46.872Z,32.46
2018-07-03T15:13:52.809Z,32.40
2018-07-03T15:15:58.535Z,32.29
2018-07-03T15:18:04.383Z,32.41
2018-07-03T15:20:11.177Z,32.34
2018-07-03T15:22:20.497Z,32.38
2018-07-03T15:24:29.653Z,32.37
2018-07-03T15:26:35.674Z,32.32
2018-07-03T15:28:41.257Z,32.34
2018-07-03T15:30:47.441Z,32.22
2018-07-03T15:32:53.648Z,32.33
2018-07-03T15:34:59.322Z,32.36
2018-07-03T15:37:07.118Z,32.36
2018-07-03T15:39:19.830Z,32.30
2018-07-03T15:45:38.550Z,32.27
2018-07-03T15:47:44.466Z,32.20
2018-07-03T15:49:50.251Z,32.19
2018-07-03T15:51:56.388Z,32.24
2018-07-03T15:54:01.965Z,32.29
2018-07-03T15:56:10.063Z,32.19
2018-07-03T15:58:19.824Z,32.22
2018-07-03T16:05:09.061Z,32.32
2018-07-03T16:07:24.841Z,32.24
2018-07-03T16:09:33.926Z,32.29
2018-07-03T16:11:40.351Z,32.26
2018-07-03T16:13:45.894Z,32.21
2018-07-03T16:15:51.905Z,32.19
2018-07-03T16:18:00.282Z,32.23
2018-07-03T16:20:13.105Z,32.26
2018-07-03T16:22:28.267Z,32.28
2018-07-03T16:24:34.234Z,32.33
2018-07-03T16:26:40.221Z,32.36
2018-07-03T16:28:45.945Z,32.29
2018-07-03T16:30:52.084Z,32.34
2018-07-03T16:32:57.884Z,32.33
2018-07-03T16:35:03.721Z,32.39
2018-07-03T16:37:13.840Z,32.41
2018-07-03T16:39:21.164Z,32.32
2018-07-03T16:41:26.898Z,32.29
2018-07-03T16:43:32.897Z,32.28
2018-07-03T16:45:39.105Z,32.36
2018-07-03T16:47:44.801Z,32.31
2018-07-03T16:49:51.018Z,32.31
2018-07-03T16:51:57.025Z,32.40
2018-07-03T16:54:02.595Z,32.34
2018-07-03T16:56:11.912Z,32.30
2018-07-03T16:58:19.753Z,32.33
2018-07-03T17:00:29.533Z,32.41
2018-07-03T17:02:35.494Z,32.31
2018-07-03T17:04:41.177Z,32.28
2018-07-03T17:06:47.520Z,32.25
2018-07-03T17:08:54.712Z,32.35
2018-07-03T17:11:01.662Z,32.31
2018-07-03T17:13:13.608Z,32.34
2018-07-03T17:15:25.750Z,32.23
2018-07-03T17:17:31.829Z,32.22
2018-07-03T17:19:40.327Z,32.24
2018-07-03T17:21:47.476Z,32.23
2018-07-03T17:23:53.542Z,32.19
2018-07-03T17:25:59.368Z,32.25
2018-07-03T17:28:06.486Z,32.17
2018-07-03T17:30:16.972Z,32.23
2018-07-03T17:32:26.381Z,32.20
2018-07-03T17:34:33.334Z,32.21
2018-07-03T17:36:39.924Z,32.18
2018-07-03T17:38:45.794Z,32.12
2018-07-03T17:41:01.922Z,32.15
2018-07-03T17:43:23.821Z,32.14
2018-07-03T17:45:40.807Z,32.09
2018-07-03T17:47:46.757Z,32.00
2018-07-03T17:49:52.500Z,32.03
2018-07-03T17:51:58.210Z,32.03
2018-07-03T17:54:04.511Z,32.01
2018-07-03T17:56:18.837Z,31.97
2018-07-03T17:58:25.235Z,31.95
2018-07-03T18:00:31.832Z,31.90
2018-07-03T18:02:37.469Z,31.83
2018-07-03T18:04:43.109Z,31.82
2018-07-03T18:06:50.180Z,31.76
2018-07-03T18:08:56.375Z,31.76
2018-07-03T18:11:01.962Z,31.73
2018-07-03T18:13:09.158Z,31.71
2018-07-03T18:15:16.451Z,31.63
2018-07-03T18:17:24.107Z,31.56
2018-07-03T18:19:34.951Z,31.50
2018-07-03T18:21:40.712Z,31.50
2018-07-03T18:23:46.721Z,31.39
2018-07-03T18:25:53.118Z,31.32
2018-07-03T18:27:58.978Z,31.35
2018-07-03T18:30:05.214Z,31.25
2018-07-03T18:32:13.630Z,31.15
2018-07-03T18:34:22.758Z,31.12
2018-07-03T18:36:29.423Z,31.13
2018-07-03T18:38:35.630Z,31.10
2018-07-03T18:40:41.596Z,31.00
2018-07-03T18:42:47.448Z,30.98
2018-07-03T18:44:53.283Z,30.93
2018-07-03T18:46:58.974Z,30.88
2018-07-03T18:49:05.557Z,30.77
2018-07-03T18:51:15.017Z,30.74
2018-07-03T18:53:23.593Z,30.69
2018-07-03T18:55:29.205Z,30.59
2018-07-03T18:57:35.228Z,30.57
2018-07-03T18:59:41.815Z,30.49
2018-07-03T19:01:47.743Z,30.43
2018-07-03T19:03:53.559Z,30.37
2018-07-03T19:05:59.284Z,30.26
2018-07-03T19:08:05.675Z,30.21
2018-07-03T19:10:14.477Z,30.15
2018-07-03T19:12:21.977Z,30.07
2018-07-03T19:14:27.737Z,30.00
2018-07-03T19:16:33.929Z,29.92
2018-07-03T19:18:39.709Z,29.88
2018-07-03T19:20:45.458Z,29.86
2018-07-03T19:22:51.332Z,29.77
2018-07-03T19:24:56.873Z,29.71
2018-07-03T19:27:02.665Z,29.65
2018-07-03T19:29:11.940Z,29.56
2018-07-03T19:31:23.398Z,29.42
2018-07-03T19:33:31.490Z,29.33
2018-07-03T19:35:41.770Z,29.25
2018-07-03T19:37:49.701Z,29.10
2018-07-03T19:39:56.457Z,29.05
2018-07-03T19:42:02.479Z,28.89
2018-07-03T19:44:11.444Z,29.05
2018-07-03T19:46:22.447Z,28.73
2018-07-03T19:48:29.249Z,28.61
2018-07-03T19:50:34.964Z,28.64
2018-07-03T19:52:41.088Z,28.53
2018-07-03T19:54:47.348Z,28.61
2018-07-03T19:56:53.073Z,28.73
2018-07-03T19:58:58.657Z,28.55
2018-07-03T20:01:04.823Z,28.59
2018-07-03T20:03:14.973Z,28.58
2018-07-03T20:05:23.985Z,28.67
2018-07-03T20:07:34.887Z,28.63
2018-07-03T20:09:40.524Z,28.67
2018-07-03T20:11:47.665Z,28.67
2018-07-03T20:13:53.915Z,28.51
2018-07-03T20:16:03.798Z,28.58
2018-07-03T20:18:27.584Z,28.53
2018-07-03T20:20:33.823Z,28.50
2018-07-03T20:22:39.489Z,28.46
2018-07-03T20:24:48.079Z,28.28
2018-07-03T20:26:55.169Z,28.36
2018-07-03T20:29:06.592Z,28.25
2018-07-03T20:31:18.565Z,27.76
2018-07-03T20:33:24.993Z,27.82
2018-07-03T20:35:32.636Z,27.80
2018-07-03T20:37:56.404Z,27.98
2018-07-03T20:40:02.265Z,28.00
2018-07-03T20:42:10.926Z,27.92
2018-07-03T20:44:19.604Z,27.78
2018-07-03T20:46:27.279Z,27.70
2018-07-03T20:48:32.889Z,27.86
2018-07-03T20:50:38.539Z,27.82
2018-07-03T20:52:45.246Z,27.51
2018-07-03T20:54:54.859Z,27.57
2018-07-03T20:57:00.405Z,27.60
2018-07-03T20:59:08.541Z,27.58
2018-07-03T21:01:16.344Z,27.75
2018-07-03T21:03:29.840Z,27.78
2018-07-03T21:05:35.821Z,27.68
2018-07-03T21:07:43.332Z,27.48
2018-07-03T21:09:48.711Z,27.56
2018-07-03T21:11:54.682Z,27.61
2018-07-03T21:13:59.868Z,27.59
2018-07-03T21:16:06.150Z,27.57
2018-07-03T21:18:13.734Z,27.49
2018-07-03T21:20:24.293Z,27.47
2018-07-03T21:22:29.628Z,27.45
2018-07-03T21:24:35.183Z,27.41
2018-07-03T21:26:40.412Z,27.29
2018-07-03T21:28:45.944Z,27.29
2018-07-03T21:30:51.449Z,27.35
2018-07-03T21:32:56.822Z,27.31
2018-07-03T21:35:02.185Z,27.31
2018-07-03T21:37:13.207Z,27.31
2018-07-03T21:39:20.967Z,26.78
2018-07-03T21:41:26.482Z,26.54
2018-07-03T21:43:32.809Z,26.84
2018-07-03T21:45:38.320Z,26.79
2018-07-03T21:47:43.546Z,26.93
2018-07-03T21:49:49.660Z,26.86
2018-07-03T21:51:54.931Z,26.88
2018-07-03T21:54:00.173Z,26.90
2018-07-03T21:56:06.589Z,26.90
2018-07-03T21:58:13.494Z,26.65
2018-07-03T22:00:21.163Z,26.76
2018-07-03T22:02:27.299Z,26.72
2018-07-03T22:04:32.541Z,26.79
2018-07-03T22:06:37.787Z,26.78
2018-07-03T22:08:43.846Z,26.69
2018-07-03T22:10:49.161Z,26.65
2018-07-03T22:12:54.991Z,26.59
2018-07-03T22:15:01.141Z,26.60
2018-07-03T22:17:12.491Z,26.61
2018-07-03T22:19:19.986Z,26.61
2018-07-03T22:21:28.907Z,26.52
2018-07-03T22:23:34.934Z,26.21
2018-07-03T22:25:40.273Z,25.94
2018-07-03T22:27:45.762Z,25.44
2018-07-03T22:29:51.404Z,25.54
2018-07-03T22:31:56.648Z,25.96
2018-07-03T22:34:02.891Z,25.93
2018-07-03T22:36:11.063Z,26.11
2018-07-03T22:38:18.344Z,26.17
2018-07-03T22:40:26.499Z,26.18
2018-07-03T22:42:31.698Z,26.20
2018-07-03T22:44:37.575Z,26.22
2018-07-03T22:46:44.450Z,26.18
2018-07-03T22:48:49.852Z,26.15
2018-07-03T22:50:55.026Z,26.16
2018-07-03T22:53:20.040Z,26.14
2018-07-03T22:55:27.133Z,26.11
2018-07-03T22:57:32.483Z,26.09
2018-07-03T22:59:38.105Z,26.07
